Time;durP1;ratioP1;P1;durP2;ratioP2;P2;SDS_P1;SDS_P2;PMS_P1;PMS_P2;Temp;Humidity;BMP_temperature;BMP_pressure;BME280_temperature;BME280_humidity;BME280_pressure;Samples;Min_cycle;Max_cycle;Signal;HPM_P1;HPM_P2
2021/07/06 00:00:48;;;;;;;1.00;0.90;;;25.90;85.00;;;;;;6191007;23;20489;-94
2021/07/06 00:03:15;;;;;;;1.10;0.90;;;25.90;85.00;;;;;;6190763;23;20422;-94
2021/07/06 00:05:43;;;;;;;1.00;0.90;;;25.90;85.00;;;;;;6193362;23;20431;-94
2021/07/06 00:08:13;;;;;;;1.00;0.80;;;25.90;85.90;;;;;;6193609;23;20441;-94
2021/07/06 00:10:41;;;;;;;1.00;0.87;;;25.90;85.00;;;;;;6194167;23;20424;-95
2021/07/06 00:13:10;;;;;;;1.00;0.80;;;25.80;84.90;;;;;;6194496;23;20459;-94
2021/07/06 00:15:40;;;;;;;1.57;0.90;;;25.90;85.00;;;;;;6193658;23;20426;-95
2021/07/06 00:18:08;;;;;;;0.90;0.73;;;25.90;85.10;;;;;;6192702;23;20405;-94
2021/07/06 00:20:35;;;;;;;1.93;0.80;;;25.90;85.00;;;;;;6188578;23;20537;-94
2021/07/06 00:23:04;;;;;;;1.20;0.93;;;25.90;85.10;;;;;;6187940;23;20395;-94
2021/07/06 00:25:32;;;;;;;1.10;0.90;;;25.90;85.10;;;;;;6188456;23;20465;-94
2021/07/06 00:27:59;;;;;;;1.20;1.00;;;25.90;85.10;;;;;;6187618;23;20489;-95
2021/07/06 00:30:27;;;;;;;1.00;0.90;;;25.90;85.10;;;;;;6187566;23;20414;-94
2021/07/06 00:32:54;;;;;;;2.30;1.00;;;25.90;85.10;;;;;;6188225;23;20441;-95
2021/07/06 00:35:23;;;;;;;0.90;0.73;;;25.90;85.10;;;;;;6188176;23;20505;-94
2021/07/06 00:37:50;;;;;;;1.43;0.73;;;25.90;85.10;;;;;;6188136;23;20436;-94
2021/07/06 00:40:17;;;;;;;1.00;0.80;;;25.90;85.10;;;;;;6188506;23;20958;-94
2021/07/06 00:42:46;;;;;;;1.00;0.87;;;25.90;85.10;;;;;;6189164;23;20500;-94
2021/07/06 00:45:15;;;;;;;1.03;0.93;;;25.90;85.10;;;;;;6188282;23;20413;-95
2021/07/06 00:47:43;;;;;;;1.63;0.90;;;25.90;85.10;;;;;;6188103;23;20425;-95
2021/07/06 00:50:12;;;;;;;1.10;0.80;;;25.90;86.00;;;;;;6187266;23;20399;-94
2021/07/06 00:52:41;;;;;;;1.20;0.80;;;25.90;85.10;;;;;;6188025;23;20465;-94
2021/07/06 00:55:09;;;;;;;1.00;0.70;;;25.90;85.10;;;;;;6189761;23;20907;-94
2021/07/06 00:57:37;;;;;;;1.00;0.70;;;25.90;85.10;;;;;;6193895;23;20409;-93
2021/07/06 01:00:08;;;;;;;1.20;1.00;;;25.90;85.20;;;;;;6192936;23;20403;-94
2021/07/06 01:02:35;;;;;;;1.10;1.00;;;25.90;85.10;;;;;;6189670;23;20481;-94
2021/07/06 01:05:02;;;;;;;1.10;0.90;;;25.90;85.10;;;;;;6187249;23;20442;-94
2021/07/06 01:07:30;;;;;;;0.93;0.70;;;25.90;85.10;;;;;;6187458;23;20517;-95
2021/07/06 01:10:01;;;;;;;1.00;0.90;;;25.90;85.10;;;;;;6187264;23;20417;-94
2021/07/06 01:12:31;;;;;;;1.00;0.80;;;25.90;85.10;;;;;;6187661;23;20410;-94
2021/07/06 01:14:57;;;;;;;1.10;0.90;;;25.90;85.10;;;;;;6188104;23;20413;-94
2021/07/06 01:17:29;;;;;;;1.07;0.90;;;25.90;85.10;;;;;;6187638;23;20441;-94
2021/07/06 01:19:57;;;;;;;1.00;0.80;;;25.90;85.20;;;;;;6187332;23;20445;-94
2021/07/06 01:22:30;;;;;;;1.07;0.97;;;25.90;85.10;;;;;;6187554;23;20445;-95
2021/07/06 01:24:57;;;;;;;1.00;0.80;;;25.90;85.10;;;;;;6187978;23;20412;-94
2021/07/06 01:27:25;;;;;;;1.10;0.90;;;25.90;85.10;;;;;;6187400;23;20947;-94
2021/07/06 01:29:52;;;;;;;2.90;0.90;;;25.90;85.10;;;;;;6187859;23;20427;-94
2021/07/06 01:32:19;;;;;;;1.00;0.80;;;25.90;85.10;;;;;;6187492;23;21046;-94
2021/07/06 01:34:46;;;;;;;0.90;0.70;;;25.90;85.10;;;;;;6186998;23;20406;-94
2021/07/06 01:37:17;;;;;;;1.20;1.10;;;25.90;85.10;;;;;;6187835;23;20949;-94
2021/07/06 01:39:46;;;;;;;0.90;0.70;;;25.90;85.10;;;;;;6186830;23;20397;-94
2021/07/06 01:42:17;;;;;;;0.90;0.70;;;25.90;85.20;;;;;;6187657;23;20821;-94
2021/07/06 01:44:44;;;;;;;0.90;0.70;;;25.90;85.20;;;;;;6187802;23;20495;-94
2021/07/06 01:47:10;;;;;;;1.20;0.80;;;25.90;85.20;;;;;;6187208;23;20651;-94
2021/07/06 01:49:37;;;;;;;0.90;0.70;;;25.90;85.20;;;;;;6186913;23;20401;-94
2021/07/06 01:52:05;;;;;;;0.90;0.80;;;25.90;85.20;;;;;;6187245;23;20414;-94
2021/07/06 01:54:32;;;;;;;1.20;0.90;;;25.90;85.20;;;;;;6186724;23;20423;-94
2021/07/06 01:57:01;;;;;;;1.00;0.80;;;25.90;85.20;;;;;;6187446;23;20497;-94
2021/07/06 01:59:28;;;;;;;1.00;0.90;;;25.90;85.20;;;;;;6186906;23;20489;-94
2021/07/06 02:01:54;;;;;;;0.90;0.70;;;25.90;86.10;;;;;;6190488;23;20469;-94
2021/07/06 02:04:21;;;;;;;1.00;0.80;;;25.90;85.20;;;;;;6186866;23;20441;-95
2021/07/06 02:06:48;;;;;;;1.00;0.80;;;25.90;85.20;;;;;;6186821;23;20449;-95
2021/07/06 02:09:15;;;;;;;1.00;0.90;;;25.90;85.20;;;;;;6186243;23;20441;-95
2021/07/06 02:11:44;;;;;;;0.90;0.80;;;25.90;85.20;;;;;;6187626;23;20440;-94
2021/07/06 02:14:13;;;;;;;1.00;0.90;;;25.90;85.20;;;;;;6187571;23;20424;-94
2021/07/06 02:16:40;;;;;;;0.90;0.70;;;25.90;85.10;;;;;;6187448;23;20505;-94
2021/07/06 02:19:07;;;;;;;1.10;0.90;;;25.90;85.20;;;;;;6187854;23;20417;-95
2021/07/06 02:21:34;;;;;;;0.93;0.80;;;25.90;85.90;;;;;;6187155;23;20762;-95
2021/07/06 02:24:02;;;;;;;0.90;0.70;;;25.90;85.10;;;;;;6186717;23;20939;-94
2021/07/06 02:26:28;;;;;;;1.00;0.80;;;25.90;85.10;;;;;;6186880;23;20452;-95
2021/07/06 02:28:55;;;;;;;1.00;0.70;;;25.90;85.10;;;;;;6186506;23;20426;-94
2021/07/06 02:31:24;;;;;;;1.10;0.90;;;25.90;85.00;;;;;;6187794;23;20460;-95
2021/07/06 02:33:51;;;;;;;0.90;0.70;;;25.90;85.00;;;;;;6193516;23;20508;-94
2021/07/06 02:36:18;;;;;;;0.90;0.67;;;25.90;85.00;;;;;;6192338;23;20415;-94
2021/07/06 02:38:45;;;;;;;0.90;0.80;;;25.90;85.00;;;;;;6190234;23;20498;-94
2021/07/06 02:41:12;;;;;;;0.90;0.80;;;25.90;85.00;;;;;;6187632;23;20527;-95
2021/07/06 02:43:39;;;;;;;0.90;0.73;;;25.90;85.00;;;;;;6186662;23;20402;-94
2021/07/06 02:46:07;;;;;;;1.00;0.80;;;25.90;85.00;;;;;;6186777;23;20476;-95
2021/07/06 02:48:35;;;;;;;1.37;0.90;;;25.90;84.90;;;;;;6186802;23;20407;-95
2021/07/06 02:51:02;;;;;;;1.57;0.80;;;25.80;84.90;;;;;;6187249;23;20418;-94
2021/07/06 02:53:29;;;;;;;0.90;0.80;;;25.80;84.90;;;;;;6187359;23;20789;-94
2021/07/06 02:55:56;;;;;;;0.90;0.60;;;25.90;84.90;;;;;;6187509;23;20493;-94
2021/07/06 02:58:23;;;;;;;0.90;0.70;;;25.80;84.80;;;;;;6186248;23;20416;-94
2021/07/06 03:00:50;;;;;;;1.00;0.80;;;25.80;84.80;;;;;;6186711;23;20409;-94
2021/07/06 03:03:17;;;;;;;1.07;0.80;;;25.90;84.90;;;;;;6186474;23;20509;-94
2021/07/06 03:05:45;;;;;;;1.00;0.70;;;25.80;84.80;;;;;;6186196;23;20478;-94
2021/07/06 03:08:12;;;;;;;1.00;0.83;;;25.80;84.80;;;;;;6186814;23;20435;-94
2021/07/06 03:10:40;;;;;;;0.93;0.77;;;25.80;84.80;;;;;;6186911;23;20438;-94
2021/07/06 03:13:08;;;;;;;0.90;0.70;;;25.80;84.70;;;;;;6186174;23;20473;-94
2021/07/06 03:15:35;;;;;;;1.00;0.80;;;25.80;84.80;;;;;;6186967;23;20410;-94
2021/07/06 03:18:05;;;;;;;0.93;0.80;;;25.80;84.80;;;;;;6186434;23;20433;-94
2021/07/06 03:20:32;;;;;;;1.00;0.80;;;25.80;84.70;;;;;;6187131;23;20410;-94
2021/07/06 03:23:01;;;;;;;0.90;0.70;;;25.80;84.70;;;;;;6186290;23;20992;-94
2021/07/06 03:25:55;;;;;;;0.97;0.77;;;25.80;84.70;;;;;;6187247;23;20438;-94
2021/07/06 03:28:22;;;;;;;0.90;0.73;;;25.80;84.60;;;;;;6188137;23;20395;-95
2021/07/06 03:30:49;;;;;;;1.00;0.70;;;25.80;84.70;;;;;;6188208;23;20710;-94
2021/07/06 03:33:15;;;;;;;1.10;0.80;;;25.80;84.70;;;;;;6188293;23;20895;-95
2021/07/06 03:35:42;;;;;;;1.00;0.80;;;25.80;84.60;;;;;;6190856;23;20445;-94
2021/07/06 03:38:11;;;;;;;1.00;0.80;;;25.80;84.70;;;;;;6210987;23;20406;-95
2021/07/06 03:40:38;;;;;;;1.00;0.80;;;25.80;84.60;;;;;;6211312;23;20386;-94
2021/07/06 03:43:06;;;;;;;0.90;0.70;;;25.90;84.70;;;;;;6211322;23;20441;-95
2021/07/06 03:45:33;;;;;;;1.10;0.87;;;25.80;84.60;;;;;;6195341;23;20751;-95
2021/07/06 03:48:00;;;;;;;1.00;0.87;;;25.80;84.60;;;;;;6190371;23;20509;-95
2021/07/06 03:50:27;;;;;;;0.90;0.70;;;25.80;84.60;;;;;;6189315;23;20421;-95
2021/07/06 03:52:56;;;;;;;1.00;0.77;;;25.80;84.50;;;;;;6189363;23;20952;-95
2021/07/06 03:55:25;;;;;;;1.00;0.70;;;25.80;84.50;;;;;;6189363;23;20800;-95
2021/07/06 03:57:52;;;;;;;1.00;0.80;;;25.80;84.40;;;;;;6188512;23;20399;-95
2021/07/06 04:00:23;;;;;;;0.90;0.70;;;25.80;84.50;;;;;;6188331;23;20433;-95
2021/07/06 04:02:50;;;;;;;0.90;0.70;;;25.80;84.40;;;;;;6189452;23;20508;-96
2021/07/06 04:05:17;;;;;;;0.93;0.73;;;25.80;84.40;;;;;;6188326;23;20458;-96
2021/07/06 04:07:44;;;;;;;1.00;0.80;;;25.80;84.40;;;;;;6191140;23;20460;-95
2021/07/06 04:10:14;;;;;;;3.20;1.07;;;25.80;84.40;;;;;;6193926;23;20446;-93
2021/07/06 04:12:43;;;;;;;1.00;0.70;;;25.80;84.40;;;;;;6189798;23;20772;-95
2021/07/06 04:15:12;;;;;;;1.00;0.80;;;25.80;84.40;;;;;;6188165;23;20441;-95
2021/07/06 04:17:40;;;;;;;1.10;0.80;;;25.80;84.30;;;;;;6187761;23;20970;-96
2021/07/06 04:20:08;;;;;;;0.90;0.70;;;25.80;84.30;;;;;;6188482;23;20521;-95
2021/07/06 04:22:36;;;;;;;0.90;0.70;;;25.80;84.40;;;;;;6187543;23;20750;-95
2021/07/06 04:25:03;;;;;;;1.00;0.70;;;25.80;84.30;;;;;;6187849;23;20425;-95
2021/07/06 04:27:30;;;;;;;1.10;1.00;;;25.80;84.30;;;;;;6187664;23;20486;-93
2021/07/06 04:29:58;;;;;;;1.00;0.80;;;25.80;84.40;;;;;;6161673;23;20413;-95
2021/07/06 04:32:25;;;;;;;1.13;1.03;;;25.80;84.40;;;;;;6188657;23;20433;-95
2021/07/06 04:34:52;;;;;;;1.33;1.00;;;25.80;84.30;;;;;;6187622;23;20852;-95
2021/07/06 04:37:19;;;;;;;2.47;0.83;;;25.80;84.30;;;;;;6187990;23;20785;-94
2021/07/06 04:39:46;;;;;;;1.20;0.97;;;25.80;84.30;;;;;;6187764;23;20485;-95
2021/07/06 04:42:16;;;;;;;1.20;1.00;;;25.80;84.30;;;;;;6187417;23;20473;-95
2021/07/06 04:44:44;;;;;;;1.53;1.10;;;25.90;84.50;;;;;;6187309;23;20418;-95
2021/07/06 04:47:13;;;;;;;2.20;1.10;;;25.90;84.60;;;;;;6187277;23;20492;-95
2021/07/06 04:49:40;;;;;;;1.23;0.90;;;25.80;84.50;;;;;;6187320;23;20495;-95
2021/07/06 04:52:07;;;;;;;2.70;1.00;;;25.90;84.60;;;;;;6187162;23;20448;-95
2021/07/06 04:54:34;;;;;;;2.30;0.93;;;25.90;84.70;;;;;;6187202;23;20415;-95
2021/07/06 04:57:01;;;;;;;3.10;1.10;;;25.90;84.70;;;;;;6187541;23;20410;-95
2021/07/06 04:59:28;;;;;;;1.93;1.10;;;25.90;84.70;;;;;;6187155;23;20501;-95
2021/07/06 05:01:55;;;;;;;1.10;0.90;;;25.90;84.80;;;;;;6187274;23;20931;-94
2021/07/06 05:04:23;;;;;;;2.67;1.47;;;25.90;84.80;;;;;;6187493;23;20416;-94
2021/07/06 05:06:50;;;;;;;3.30;1.23;;;25.90;84.80;;;;;;6160988;23;20435;-95
2021/07/06 05:09:17;;;;;;;1.60;0.90;;;25.90;84.80;;;;;;6187599;23;20409;-94
2021/07/06 05:11:44;;;;;;;1.23;0.90;;;25.90;84.90;;;;;;6187569;23;20448;-94
2021/07/06 05:14:11;;;;;;;4.13;0.90;;;25.90;84.90;;;;;;6188010;23;20513;-95
2021/07/06 05:16:38;;;;;;;1.20;0.90;;;25.90;84.90;;;;;;6186905;23;20497;-95
2021/07/06 05:19:05;;;;;;;1.20;0.93;;;25.90;84.90;;;;;;6188014;23;20489;-94
2021/07/06 05:21:33;;;;;;;1.57;1.00;;;25.90;85.00;;;;;;6187001;23;20443;-94
2021/07/06 05:24:01;;;;;;;1.63;0.80;;;25.80;84.90;;;;;;6187642;23;20446;-95
2021/07/06 05:26:58;;;;;;;1.50;1.00;;;25.90;85.10;;;;;;6186633;23;20434;-95
2021/07/06 05:29:24;;;;;;;1.33;0.90;;;25.90;84.90;;;;;;6187105;23;20914;-95
2021/07/06 05:31:51;;;;;;;1.10;0.90;;;25.90;85.10;;;;;;6187010;23;20434;-94
2021/07/06 05:34:18;;;;;;;2.70;1.00;;;25.90;85.10;;;;;;6186884;23;20530;-93
2021/07/06 05:36:48;;;;;;;1.33;0.90;;;25.90;85.20;;;;;;6186503;23;20964;-94
2021/07/06 05:39:15;;;;;;;2.30;1.07;;;25.90;85.20;;;;;;6186964;23;20922;-94
2021/07/06 05:41:42;;;;;;;1.10;0.90;;;25.90;85.20;;;;;;6186910;23;20445;-94
2021/07/06 05:44:09;;;;;;;1.60;0.90;;;25.90;85.20;;;;;;6186840;23;20842;-94
2021/07/06 05:46:36;;;;;;;1.50;1.33;;;25.90;85.20;;;;;;6191726;23;20413;-94
2021/07/06 05:49:03;;;;;;;1.10;0.90;;;25.90;85.20;;;;;;6195632;23;20434;-95
2021/07/06 05:51:30;;;;;;;2.57;1.10;;;25.90;85.20;;;;;;6189960;23;20433;-96
2021/07/06 05:53:59;;;;;;;1.80;1.13;;;25.90;85.40;;;;;;6187630;23;20441;-96
2021/07/06 05:56:30;;;;;;;1.50;1.20;;;25.90;85.30;;;;;;6188753;23;20788;-96
2021/07/06 05:58:58;;;;;;;2.23;1.30;;;26.00;85.50;;;;;;6194567;23;20406;-96
2021/07/06 06:01:30;;;;;;;4.37;1.17;;;25.70;85.20;;;;;;6193599;23;20410;-96
2021/07/06 06:03:57;;;;;;;3.17;1.00;;;25.80;85.20;;;;;;6191532;23;20494;-96
2021/07/06 06:06:25;;;;;;;2.03;1.20;;;25.90;85.40;;;;;;6192294;23;20443;-96
2021/07/06 06:08:55;;;;;;;1.40;1.00;;;25.90;85.30;;;;;;6193577;23;20410;-96
2021/07/06 06:11:23;;;;;;;1.97;1.13;;;25.90;85.30;;;;;;6192394;23;20413;-95
2021/07/06 06:13:51;;;;;;;2.13;1.20;;;25.90;85.40;;;;;;6188331;23;20445;-95
2021/07/06 06:16:17;;;;;;;2.47;1.10;;;25.90;85.30;;;;;;6187744;23;20471;-96
2021/07/06 06:18:54;;;;;;;2.63;1.10;;;25.90;85.40;;;;;;6188042;23;20507;-96
2021/07/06 06:21:21;;;;;;;1.40;1.17;;;25.90;85.30;;;;;;6188563;23;20411;-96
2021/07/06 06:23:48;;;;;;;2.70;1.00;;;25.90;85.40;;;;;;6188248;23;20523;-96
2021/07/06 06:26:15;;;;;;;1.63;1.10;;;25.90;85.40;;;;;;6188037;23;20420;-95
2021/07/06 06:28:44;;;;;;;1.20;1.00;;;25.90;85.30;;;;;;6187676;23;20885;-95
2021/07/06 06:31:11;;;;;;;1.20;0.80;;;25.90;85.30;;;;;;6188295;23;20877;-96
2021/07/06 06:33:38;;;;;;;1.53;0.80;;;25.90;85.40;;;;;;6187850;23;20418;-96
2021/07/06 06:36:05;;;;;;;1.90;0.90;;;25.90;85.30;;;;;;6187860;23;20803;-96
2021/07/06 06:38:32;;;;;;;2.33;1.00;;;25.90;85.40;;;;;;6187910;23;20544;-95
2021/07/06 06:41:00;;;;;;;1.40;0.90;;;25.90;85.30;;;;;;6188661;23;20502;-96
2021/07/06 06:43:27;;;;;;;1.10;0.80;;;25.90;85.30;;;;;;6188403;23;20449;-96
2021/07/06 06:45:55;;;;;;;1.00;0.80;;;25.90;85.40;;;;;;6187196;23;20412;-95
2021/07/06 06:48:22;;;;;;;1.30;0.90;;;25.90;85.40;;;;;;6188349;23;20413;-96
2021/07/06 06:50:49;;;;;;;1.00;0.90;;;25.90;85.40;;;;;;6188505;23;20410;-95
2021/07/06 06:53:16;;;;;;;1.20;0.90;;;25.90;85.40;;;;;;6188002;23;20430;-96
2021/07/06 06:55:43;;;;;;;1.23;0.80;;;25.90;85.40;;;;;;6188483;23;20410;-96
2021/07/06 06:58:10;;;;;;;1.10;0.90;;;25.90;85.40;;;;;;6188315;23;20426;-96
2021/07/06 07:00:37;;;;;;;1.40;1.10;;;25.90;85.40;;;;;;6187541;23;20420;-96
2021/07/06 07:03:06;;;;;;;1.00;0.90;;;25.90;85.40;;;;;;6189226;23;20436;-96
2021/07/06 07:05:33;;;;;;;1.43;1.00;;;25.90;85.50;;;;;;6189318;23;20505;-96
2021/07/06 07:08:00;;;;;;;2.27;1.10;;;25.90;85.50;;;;;;6191492;23;20393;-96
2021/07/06 07:10:27;;;;;;;1.10;0.90;;;25.90;85.50;;;;;;6194118;23;20460;-96
2021/07/06 07:12:56;;;;;;;1.30;1.10;;;25.90;85.40;;;;;;6191072;23;20418;-96
2021/07/06 07:15:23;;;;;;;1.80;1.30;;;25.90;85.30;;;;;;6190423;23;20414;-96
2021/07/06 07:17:50;;;;;;;2.53;1.30;;;25.80;85.40;;;;;;6191031;23;20414;-96
2021/07/06 07:20:19;;;;;;;1.20;1.10;;;25.90;85.50;;;;;;6192168;23;20406;-96
2021/07/06 07:22:46;;;;;;;1.50;1.40;;;25.90;85.50;;;;;;6193700;23;20475;-96
2021/07/06 07:25:14;;;;;;;1.70;1.00;;;25.90;85.60;;;;;;6202298;23;20414;-96
2021/07/06 07:27:43;;;;;;;1.17;0.90;;;25.90;85.60;;;;;;6173063;23;20416;-94
2021/07/06 07:30:13;;;;;;;1.53;0.93;;;25.90;85.50;;;;;;6192318;23;20414;-95
2021/07/06 07:32:40;;;;;;;5.00;1.33;;;25.90;85.50;;;;;;6197192;23;20480;-95
2021/07/06 07:35:08;;;;;;;2.13;1.00;;;25.90;85.60;;;;;;6194380;23;20410;-95
2021/07/06 07:37:56;;;;;;;1.43;1.17;;;25.90;86.40;;;;;;6189732;23;20411;-96
2021/07/06 07:40:24;;;;;;;2.40;1.10;;;25.80;85.30;;;;;;6190814;23;20406;-96
2021/07/06 07:42:52;;;;;;;1.60;0.80;;;25.90;85.50;;;;;;6197586;23;20541;-95
2021/07/06 07:45:20;;;;;;;1.27;1.17;;;25.90;85.50;;;;;;6193773;23;20407;-96
2021/07/06 07:47:49;;;;;;;3.60;1.10;;;25.90;85.40;;;;;;6194433;23;20430;-95
2021/07/06 07:50:18;;;;;;;2.37;1.40;;;25.90;86.20;;;;;;6191693;23;20414;-96
2021/07/06 07:52:45;;;;;;;3.97;1.10;;;25.90;85.50;;;;;;6193388;23;20460;-96
2021/07/06 07:55:13;;;;;;;2.10;0.90;;;25.90;85.60;;;;;;6193943;23;20503;-95
2021/07/06 07:57:41;;;;;;;2.73;1.00;;;25.90;85.60;;;;;;6195589;23;20407;-96
2021/07/06 08:00:09;;;;;;;1.20;0.90;;;25.90;85.50;;;;;;6190985;23;20395;-96
2021/07/06 08:02:36;;;;;;;1.57;1.17;;;25.90;85.50;;;;;;6194746;23;20434;-95
2021/07/06 08:05:04;;;;;;;2.30;1.03;;;25.90;85.40;;;;;;6192727;23;20431;-96
2021/07/06 08:07:31;;;;;;;1.87;1.20;;;25.90;85.40;;;;;;6194184;23;20438;-96
2021/07/06 08:09:58;;;;;;;1.57;1.00;;;25.90;85.40;;;;;;6193554;23;20433;-96
2021/07/06 08:12:27;;;;;;;1.10;0.83;;;25.90;85.30;;;;;;6190930;23;20410;-96
2021/07/06 08:14:55;;;;;;;1.17;0.90;;;25.90;85.40;;;;;;6196355;23;20773;-96
2021/07/06 08:17:26;;;;;;;2.00;1.00;;;25.90;85.30;;;;;;6191415;23;20897;-96
2021/07/06 08:19:59;;;;;;;1.00;0.83;;;25.90;85.30;;;;;;6192620;23;20407;-96
2021/07/06 08:22:26;;;;;;;1.00;0.87;;;25.90;85.30;;;;;;6191362;23;20410;-96
2021/07/06 08:24:53;;;;;;;2.37;1.00;;;25.90;85.30;;;;;;6211251;23;20454;-95
2021/07/06 08:27:23;;;;;;;2.20;0.90;;;25.90;85.40;;;;;;6215169;23;20398;-95
2021/07/06 08:29:53;;;;;;;1.10;0.80;;;25.90;85.40;;;;;;6215117;23;20456;-96
2021/07/06 08:32:20;;;;;;;2.50;1.00;;;25.90;85.30;;;;;;6203313;23;20418;-95
2021/07/06 08:34:47;;;;;;;1.00;0.87;;;25.90;85.30;;;;;;6194945;23;20454;-95
2021/07/06 08:37:16;;;;;;;4.30;1.47;;;25.90;85.40;;;;;;6193999;23;20407;-96
2021/07/06 08:39:46;;;;;;;1.20;1.00;;;25.90;85.30;;;;;;6192943;23;20425;-95
2021/07/06 08:42:13;;;;;;;2.40;1.10;;;25.90;85.30;;;;;;6192115;23;20383;-95
2021/07/06 08:44:41;;;;;;;1.10;1.00;;;25.90;85.30;;;;;;6192150;23;20448;-96
2021/07/06 08:47:14;;;;;;;2.73;1.03;;;25.90;85.30;;;;;;6191733;23;20406;-95
2021/07/06 08:49:43;;;;;;;1.30;1.20;;;25.90;85.30;;;;;;6196228;23;20399;-95
2021/07/06 08:52:12;;;;;;;1.50;1.20;;;25.90;86.10;;;;;;6191798;23;20469;-95
2021/07/06 08:54:39;;;;;;;1.10;1.00;;;25.90;85.20;;;;;;6189073;23;20439;-95
2021/07/06 08:57:07;;;;;;;1.33;1.10;;;25.90;85.20;;;;;;6190378;23;20415;-95
2021/07/06 08:59:38;;;;;;;1.53;0.90;;;25.90;85.20;;;;;;6192231;23;20451;-93
2021/07/06 09:02:07;;;;;;;1.00;0.90;;;25.90;85.30;;;;;;6212466;23;20410;-95
2021/07/06 09:04:46;;;;;;;2.60;0.93;;;26.00;85.30;;;;;;6209985;23;20451;-96
2021/07/06 09:07:14;;;;;;;1.83;0.97;;;26.00;85.30;;;;;;6189672;23;21008;-95
2021/07/06 09:09:42;;;;;;;2.00;0.93;;;25.90;85.20;;;;;;6190999;23;20572;-96
2021/07/06 09:12:12;;;;;;;1.43;1.00;;;25.90;85.20;;;;;;6189978;23;20425;-95
2021/07/06 09:14:44;;;;;;;1.80;1.00;;;25.90;85.20;;;;;;6190077;23;20422;-96
2021/07/06 09:17:13;;;;;;;1.87;0.90;;;25.90;85.20;;;;;;6189854;23;20405;-95
2021/07/06 09:19:43;;;;;;;1.30;1.00;;;25.90;85.20;;;;;;6190034;23;20438;-96
2021/07/06 09:22:14;;;;;;;2.03;1.00;;;25.90;85.20;;;;;;6189430;23;20435;-95
2021/07/06 09:27:30;;;;;;;1.20;0.90;;;26.00;85.20;;;;;;6196336;23;20437;-96
2021/07/06 09:30:15;;;;;;;1.90;1.07;;;26.00;85.20;;;;;;6194649;23;20870;-95
2021/07/06 09:32:46;;;;;;;1.27;0.90;;;26.00;85.20;;;;;;6195257;23;20417;-95
2021/07/06 09:35:17;;;;;;;1.10;0.90;;;26.00;85.30;;;;;;6194482;23;20431;-95
2021/07/06 09:37:59;;;;;;;1.40;1.10;;;26.00;85.30;;;;;;6199884;23;20496;-95
2021/07/06 09:40:40;;;;;;;1.00;0.80;;;26.00;85.20;;;;;;6199491;23;20406;-95
2021/07/06 09:43:16;;;;;;;1.17;0.90;;;26.00;85.20;;;;;;6198723;23;20421;-95
2021/07/06 09:45:47;;;;;;;3.10;1.37;;;26.00;85.20;;;;;;6191435;23;20420;-96
2021/07/06 09:48:14;;;;;;;1.40;0.90;;;26.00;85.30;;;;;;6190256;23;20442;-95
2021/07/06 09:50:41;;;;;;;6.73;1.40;;;26.00;85.30;;;;;;6190702;23;20410;-95
2021/07/06 09:53:25;;;;;;;3.10;0.93;;;26.00;85.30;;;;;;6188261;23;20526;-95
2021/07/06 09:55:53;;;;;;;2.60;1.13;;;26.00;85.30;;;;;;6189769;23;20410;-96
2021/07/06 09:58:20;;;;;;;1.50;1.27;;;26.00;85.40;;;;;;6188416;23;20442;-94
2021/07/06 10:00:47;;;;;;;1.10;0.90;;;26.00;85.40;;;;;;6188267;23;20438;-95
2021/07/06 10:03:14;;;;;;;1.33;1.10;;;26.00;85.30;;;;;;6187860;23;20486;-94
2021/07/06 10:05:43;;;;;;;1.50;1.17;;;26.00;85.30;;;;;;6188489;23;20434;-96
2021/07/06 10:08:11;;;;;;;3.60;1.70;;;26.00;85.50;;;;;;6196884;23;20422;-95
2021/07/06 10:10:39;;;;;;;4.10;1.47;;;26.00;85.40;;;;;;6188018;23;20434;-95
2021/07/06 10:13:07;;;;;;;2.70;1.67;;;26.00;85.40;;;;;;6187384;23;20917;-95
2021/07/06 10:15:34;;;;;;;4.60;2.17;;;26.00;85.40;;;;;;6188154;23;20438;-95
2021/07/06 10:18:01;;;;;;;4.83;2.50;;;26.00;85.30;;;;;;6189226;23;20406;-95
2021/07/06 10:20:30;;;;;;;8.63;3.00;;;26.00;85.40;;;;;;6188689;23;20402;-96
2021/07/06 10:23:03;;;;;;;7.30;3.03;;;26.00;85.40;;;;;;6188975;23;20416;-96
2021/07/06 10:25:33;;;;;;;9.73;3.40;;;26.00;85.40;;;;;;6190073;23;20462;-95
2021/07/06 10:28:03;;;;;;;7.60;3.90;;;26.00;85.40;;;;;;6190495;23;20494;-96
2021/07/06 10:30:33;;;;;;;8.13;3.40;;;26.00;85.50;;;;;;6188971;23;20452;-95
2021/07/06 10:33:01;;;;;;;10.40;3.40;;;26.00;85.50;;;;;;6189941;23;20434;-95
2021/07/06 10:35:48;;;;;;;9.10;3.63;;;26.00;86.30;;;;;;6194634;23;20434;-96
2021/07/06 10:38:43;;;;;;;8.80;4.63;;;26.00;85.40;;;;;;6206400;23;20481;-96
2021/07/06 10:41:14;;;;;;;9.70;3.63;;;26.00;85.40;;;;;;6204926;23;20411;-96
2021/07/06 10:43:56;;;;;;;7.93;3.73;;;26.00;85.50;;;;;;6191351;23;20767;-94
2021/07/06 10:46:31;;;;;;;6.63;3.40;;;26.00;85.50;;;;;;6189801;23;20410;-95
2021/07/06 10:49:00;;;;;;;7.10;3.60;;;26.00;85.50;;;;;;6189611;23;20404;-95
2021/07/06 10:51:50;;;;;;;7.77;2.70;;;26.00;85.50;;;;;;6189329;23;20417;-95
2021/07/06 10:54:25;;;;;;;6.97;2.83;;;26.00;85.40;;;;;;6189962;23;20412;-95
2021/07/06 10:56:54;;;;;;;6.13;3.30;;;26.00;85.50;;;;;;6194083;23;20406;-94
2021/07/06 10:59:23;;;;;;;4.00;2.53;;;26.00;85.50;;;;;;6196357;23;20445;-96
2021/07/06 11:01:59;;;;;;;8.60;3.23;;;26.00;85.40;;;;;;6194912;23;20434;-94
2021/07/06 11:05:02;;;;;;;5.50;2.73;;;26.00;86.30;;;;;;6194454;23;20449;-95
2021/07/06 11:08:01;;;;;;;6.13;3.30;;;26.10;85.50;;;;;;6197689;23;20465;-95
2021/07/06 11:10:45;;;;;;;7.00;2.70;;;26.00;85.50;;;;;;6196887;23;20404;-95
2021/07/06 11:13:17;;;;;;;6.90;3.30;;;26.10;85.70;;;;;;6195364;23;20386;-96
2021/07/06 11:15:46;;;;;;;3.90;2.50;;;26.10;85.70;;;;;;6196968;23;20398;-94
2021/07/06 11:18:13;;;;;;;8.63;2.77;;;26.10;85.70;;;;;;6192293;23;20406;-96
2021/07/06 11:20:42;;;;;;;2.87;2.43;;;26.10;85.70;;;;;;6191389;23;20405;-96
2021/07/06 11:23:11;;;;;;;4.20;3.20;;;26.10;85.70;;;;;;6191845;23;20526;-94
2021/07/06 11:25:42;;;;;;;3.47;2.90;;;26.10;85.80;;;;;;6197411;23;20506;-96
2021/07/06 11:28:12;;;;;;;7.47;3.20;;;26.10;85.70;;;;;;6200161;23;20406;-96
2021/07/06 11:30:59;;;;;;;3.90;2.43;;;26.20;85.80;;;;;;6205645;23;20430;-96
2021/07/06 11:33:42;;;;;;;5.23;2.50;;;26.20;85.80;;;;;;6178060;23;20470;-95
2021/07/06 11:36:22;;;;;;;4.30;3.00;;;26.20;85.70;;;;;;6190342;23;20822;-96
2021/07/06 11:38:50;;;;;;;5.57;2.50;;;26.20;85.60;;;;;;6195650;23;20406;-96
2021/07/06 11:41:22;;;;;;;5.23;2.17;;;26.20;85.60;;;;;;6192869;23;20416;-95
2021/07/06 11:43:49;;;;;;;3.70;2.40;;;26.20;85.60;;;;;;6191333;23;20398;-96
2021/07/06 11:46:17;;;;;;;3.43;2.13;;;26.20;85.60;;;;;;6191898;23;20496;-96
2021/07/06 11:48:48;;;;;;;4.07;2.70;;;26.20;85.50;;;;;;6190929;23;20414;-96
2021/07/06 11:51:16;;;;;;;5.27;2.17;;;26.20;85.40;;;;;;6193359;23;20394;-94
2021/07/06 11:53:45;;;;;;;5.40;2.70;;;26.20;85.40;;;;;;6197855;23;20418;-96
2021/07/06 11:59:16;;;;;;;2.80;1.63;;;26.30;85.40;;;;;;6129686;23;20841;-93
2021/07/06 12:01:43;;;;;;;3.13;2.33;;;26.30;85.20;;;;;;6191879;23;20410;-96
2021/07/06 12:04:11;;;;;;;4.17;2.37;;;26.30;85.10;;;;;;6191841;23;20443;-96
2021/07/06 12:06:38;;;;;;;5.20;2.30;;;26.30;85.00;;;;;;6190406;23;20525;-94
2021/07/06 12:09:06;;;;;;;2.73;1.70;;;26.30;84.90;;;;;;6192751;23;20763;-96
2021/07/06 12:11:33;;;;;;;3.87;2.30;;;26.30;84.80;;;;;;6203850;23;20418;-94
2021/07/06 12:14:02;;;;;;;2.93;1.53;;;26.30;84.80;;;;;;6212432;23;20410;-93
2021/07/06 12:16:31;;;;;;;2.53;2.03;;;26.30;84.70;;;;;;6205673;23;20429;-96
2021/07/06 12:19:01;;;;;;;2.73;1.53;;;26.30;84.70;;;;;;6196004;23;20410;-96
2021/07/06 12:21:31;;;;;;;2.33;2.00;;;26.30;84.60;;;;;;6195091;23;20419;-96
2021/07/06 12:24:01;;;;;;;1.83;1.63;;;26.30;84.50;;;;;;6194663;23;20399;-96
2021/07/06 12:26:30;;;;;;;3.60;1.80;;;26.30;84.50;;;;;;6197111;23;20746;-96
2021/07/06 12:28:57;;;;;;;2.43;1.90;;;26.30;84.50;;;;;;6197224;23;20414;-95
2021/07/06 12:31:29;;;;;;;3.00;1.53;;;26.30;84.50;;;;;;6195672;23;20811;-94
2021/07/06 12:34:08;;;;;;;3.77;1.43;;;26.30;84.40;;;;;;6196037;23;20925;-95
2021/07/06 12:36:57;;;;;;;2.87;1.53;;;26.40;84.50;;;;;;6194545;23;21000;-94
2021/07/06 12:39:26;;;;;;;2.73;1.87;;;26.30;84.30;;;;;;6194143;23;20422;-94
2021/07/06 12:41:56;;;;;;;6.00;2.30;;;26.30;84.20;;;;;;6190287;23;20425;-95
2021/07/06 12:44:36;;;;;;;2.57;1.40;;;26.30;84.20;;;;;;6190380;23;20430;-95
2021/07/06 12:47:24;;;;;;;6.13;1.83;;;26.30;84.10;;;;;;6188831;23;20413;-96
2021/07/06 12:49:53;;;;;;;3.07;1.53;;;26.30;84.10;;;;;;6189212;23;20410;-96
2021/07/06 12:52:23;;;;;;;3.70;1.30;;;26.30;84.20;;;;;;6193433;23;20414;-94
2021/07/06 12:54:51;;;;;;;1.67;1.30;;;26.30;84.10;;;;;;6193275;23;20421;-96
2021/07/06 12:57:29;;;;;;;4.53;1.53;;;26.30;84.00;;;;;;6192983;23;20431;-94
2021/07/06 13:00:15;;;;;;;2.03;1.40;;;26.30;84.00;;;;;;6192057;23;20490;-93
2021/07/06 13:02:46;;;;;;;1.73;1.30;;;26.30;84.00;;;;;;6194949;23;20949;-95
2021/07/06 13:05:21;;;;;;;1.57;1.37;;;26.30;84.10;;;;;;6187176;23;20467;-92